Boykin, South Carolina
Current Conditions -  °F | °C
As of 1:58 PM on Saturday 25 Oct 2014 (Local Time) from KSSC Reporting Station
Clear Clear  
Wind Chill: 72°   Ceiling: Unl
Heat Index: 72°   Visibility: 10mi
Dew Point: 41°   Wind: 5mph
Humidity: 32%   Direction: 310°NW
Pressure: 29.97"   Gusts: NA
Location:  34.1106°N, 80.4967°W
Report Text: KSSC 251758Z AUTO 31004KT 10SM CLR 22/05 A2997 RMK AO2 SLP150 T02220049 10222 20085 57020 $
Loading
Personal Weather Stations






























Interactive Weather Map
Tropical Storm Tracking
New forecast layout! Learn more

10-Day Weather Forecast

Advertisements
Track Severe Weather on mobile